createdAt,value
2018-07-12T00:00:18.108Z,99.90
2018-07-12T00:02:44.820Z,99.90
2018-07-12T00:05:11.521Z,99.90
2018-07-12T00:07:38.351Z,99.90
2018-07-12T00:10:05.105Z,99.90
2018-07-12T00:12:31.811Z,99.90
2018-07-12T00:14:58.593Z,99.90
2018-07-12T00:17:25.313Z,99.90
2018-07-12T00:19:52.060Z,99.90
2018-07-12T00:22:18.794Z,99.90
2018-07-12T00:24:45.672Z,99.90
2018-07-12T00:27:12.409Z,99.90
2018-07-12T00:29:39.692Z,99.90
2018-07-12T00:32:07.462Z,99.90
2018-07-12T00:34:34.134Z,99.90
2018-07-12T00:37:02.031Z,99.90
2018-07-12T00:39:28.846Z,99.90
2018-07-12T00:41:55.810Z,99.90
2018-07-12T00:44:22.653Z,99.90
2018-07-12T00:46:50.321Z,99.90
2018-07-12T00:49:17.010Z,99.90
2018-07-12T00:51:43.699Z,99.90
2018-07-12T00:56:57.603Z,99.90
2018-07-12T00:59:31.894Z,99.90
2018-07-12T01:01:58.694Z,99.90
2018-07-12T01:04:25.400Z,99.90
2018-07-12T01:06:52.165Z,99.90
2018-07-12T01:09:18.996Z,99.90
2018-07-12T01:11:45.692Z,99.90
2018-07-12T01:14:12.436Z,99.90
2018-07-12T01:16:39.398Z,99.90
2018-07-12T01:19:06.135Z,99.90
2018-07-12T01:21:32.832Z,99.90
2018-07-12T01:23:59.624Z,99.90
2018-07-12T01:26:26.338Z,99.90
2018-07-12T01:28:53.057Z,99.90
2018-07-12T01:31:20.271Z,99.90
2018-07-12T01:33:48.107Z,99.90
2018-07-12T01:36:14.924Z,99.90
2018-07-12T01:38:41.684Z,99.90
2018-07-12T01:41:08.363Z,99.90
2018-07-12T01:43:35.739Z,99.90
2018-07-12T01:46:02.522Z,99.90
2018-07-12T01:48:29.289Z,99.90
2018-07-12T01:50:56.027Z,99.90
2018-07-12T01:53:22.892Z,99.90
2018-07-12T01:55:50.661Z,99.90
2018-07-12T01:58:17.397Z,99.90
2018-07-12T02:00:45.105Z,99.90
2018-07-12T02:03:11.829Z,99.90
2018-07-12T02:05:38.574Z,99.90
2018-07-12T02:08:05.312Z,99.90
2018-07-12T02:10:31.985Z,99.90
2018-07-12T02:12:58.908Z,99.90
2018-07-12T02:20:25.359Z,99.90
2018-07-12T02:22:52.439Z,99.90
2018-07-12T02:25:19.205Z,99.90
2018-07-12T02:27:45.919Z,99.90
2018-07-12T02:30:12.645Z,99.90
2018-07-12T02:32:39.401Z,99.90
2018-07-12T02:35:06.093Z,99.90
2018-07-12T02:37:32.864Z,99.90
2018-07-12T02:39:59.699Z,99.90
2018-07-12T02:42:26.411Z,99.90
2018-07-12T02:44:53.135Z,99.90
2018-07-12T02:47:20.128Z,99.90
2018-07-12T02:49:47.287Z,99.90
2018-07-12T02:52:14.565Z,99.90
2018-07-12T02:54:42.141Z,99.90
2018-07-12T02:57:08.894Z,99.90
2018-07-12T02:59:35.633Z,99.90
2018-07-12T03:02:02.649Z,99.90
2018-07-12T03:04:29.516Z,99.90
2018-07-12T03:06:56.236Z,99.90
2018-07-12T03:09:22.996Z,99.90
2018-07-12T03:11:49.684Z,99.90
2018-07-12T03:14:16.431Z,99.90
2018-07-12T03:16:43.197Z,99.90
2018-07-12T03:19:09.920Z,99.90
2018-07-12T03:21:36.652Z,99.90
2018-07-12T03:24:04.244Z,99.90
2018-07-12T03:26:31.014Z,99.90
2018-07-12T03:29:04.215Z,99.90
2018-07-12T03:31:41.480Z,99.90
2018-07-12T03:34:24.078Z,99.90
2018-07-12T03:36:50.847Z,99.90
2018-07-12T03:39:18.597Z,99.90
2018-07-12T03:41:45.325Z,99.90
2018-07-12T03:44:12.066Z,99.90
2018-07-12T03:46:38.788Z,99.90
2018-07-12T03:49:05.511Z,99.90
2018-07-12T03:51:32.299Z,99.90
2018-07-12T03:53:59.109Z,99.90
2018-07-12T03:56:25.821Z,99.90
2018-07-12T03:58:52.594Z,99.90
2018-07-12T04:01:19.270Z,99.90
2018-07-12T04:03:45.997Z,99.90
2018-07-12T04:06:12.839Z,99.90
2018-07-12T04:08:39.637Z,99.90
2018-07-12T04:11:06.300Z,99.90
2018-07-12T04:13:33.658Z,99.90
2018-07-12T04:16:00.371Z,99.90
2018-07-12T04:18:27.073Z,99.90
2018-07-12T04:20:53.750Z,99.90
2018-07-12T04:23:20.507Z,99.90
2018-07-12T04:25:47.297Z,99.90
2018-07-12T04:28:13.994Z,99.90
2018-07-12T04:30:40.745Z,99.90
2018-07-12T04:33:07.502Z,99.90
2018-07-12T04:35:34.209Z,99.90
2018-07-12T04:38:00.934Z,99.90
2018-07-12T04:40:27.661Z,99.90
2018-07-12T04:42:54.345Z,99.90
2018-07-12T04:45:21.026Z,99.90
2018-07-12T04:47:54.592Z,99.90
2018-07-12T04:50:32.123Z,99.90
2018-07-12T04:52:58.955Z,99.90
2018-07-12T04:55:25.703Z,99.90
2018-07-12T04:57:52.685Z,99.90
2018-07-12T05:00:19.412Z,99.90
2018-07-12T05:02:46.937Z,99.90
2018-07-12T05:05:13.719Z,99.90
2018-07-12T05:07:40.452Z,99.90
2018-07-12T05:10:07.198Z,99.90
2018-07-12T05:12:34.422Z,99.90
2018-07-12T05:15:01.134Z,99.90
2018-07-12T05:17:27.851Z,99.90
2018-07-12T05:19:54.598Z,99.90
2018-07-12T05:22:22.430Z,99.90
2018-07-12T05:24:49.146Z,99.90
2018-07-12T05:27:15.964Z,99.90
2018-07-12T05:29:42.682Z,99.90
2018-07-12T05:32:10.034Z,99.90
2018-07-12T05:34:36.850Z,99.90
2018-07-12T05:37:05.259Z,99.90
2018-07-12T05:39:33.105Z,99.90
2018-07-12T05:42:00.959Z,99.90
2018-07-12T05:44:29.398Z,99.90
2018-07-12T05:46:57.472Z,99.90
2018-07-12T05:49:25.371Z,99.90
2018-07-12T05:51:53.594Z,99.90
2018-07-12T05:54:21.510Z,99.90
2018-07-12T05:56:50.133Z,99.90
2018-07-12T05:59:18.551Z,99.90
2018-07-12T06:02:00.790Z,99.90
2018-07-12T06:04:28.625Z,99.90
2018-07-12T06:06:56.621Z,99.90
2018-07-12T06:09:24.497Z,99.90
2018-07-12T06:11:52.318Z,99.90
2018-07-12T06:14:20.218Z,99.90
2018-07-12T06:17:51.190Z,99.90
2018-07-12T06:20:19.044Z,99.90
2018-07-12T06:22:46.880Z,99.90
2018-07-12T06:25:54.151Z,99.90
2018-07-12T06:30:55.132Z,99.90
2018-07-12T06:33:22.954Z,99.90
2018-07-12T06:35:50.800Z,99.90
2018-07-12T06:38:18.693Z,99.90
2018-07-12T06:40:46.446Z,99.90
2018-07-12T06:43:15.173Z,99.90
2018-07-12T06:45:42.970Z,99.90
2018-07-12T06:48:10.904Z,99.90
2018-07-12T06:50:38.694Z,99.90
2018-07-12T06:53:06.747Z,99.90
2018-07-12T06:55:34.608Z,99.90
2018-07-12T06:58:02.634Z,99.90
2018-07-12T07:00:30.447Z,99.90
2018-07-12T07:02:58.889Z,99.90
2018-07-12T07:05:27.739Z,99.90
2018-07-12T07:07:55.524Z,99.90
2018-07-12T07:10:23.610Z,99.90
2018-07-12T07:12:51.428Z,99.90
2018-07-12T07:15:19.253Z,99.90
2018-07-12T07:17:47.042Z,99.90
2018-07-12T07:20:15.048Z,99.90
2018-07-12T07:22:42.806Z,99.90
2018-07-12T07:25:10.956Z,99.90
2018-07-12T07:27:38.784Z,98.50
2018-07-12T07:30:06.651Z,98.80
2018-07-12T07:32:34.510Z,99.00
2018-07-12T07:35:29.879Z,98.90
2018-07-12T07:37:57.861Z,99.80
2018-07-12T07:40:25.807Z,99.50
2018-07-12T07:45:34.221Z,99.60
2018-07-12T07:48:01.984Z,99.50
2018-07-12T07:50:29.727Z,99.30
2018-07-12T07:52:58.571Z,99.10
2018-07-12T07:55:26.370Z,97.80
2018-07-12T07:57:55.339Z,96.30
2018-07-12T08:00:23.173Z,96.50
2018-07-12T08:02:51.227Z,96.50
2018-07-12T08:05:19.046Z,97.10
2018-07-12T08:07:46.942Z,97.50
2018-07-12T08:12:48.431Z,97.50
2018-07-12T08:15:16.274Z,97.70
2018-07-12T08:17:44.313Z,97.50
2018-07-12T08:20:12.293Z,97.40
2018-07-12T08:22:42.231Z,97.60
2018-07-12T08:25:10.131Z,97.50
2018-07-12T08:27:49.589Z,96.90
2018-07-12T08:30:17.510Z,94.70
2018-07-12T08:32:45.362Z,94.20
2018-07-12T08:35:23.450Z,95.10
2018-07-12T08:37:51.329Z,95.60
2018-07-12T08:40:27.244Z,94.70
2018-07-12T08:43:05.014Z,93.10
2018-07-12T08:45:57.644Z,93.50
2018-07-12T08:48:25.811Z,94.40
2018-07-12T08:50:53.709Z,94.00
2018-07-12T08:53:21.663Z,93.50
2018-07-12T08:55:49.669Z,92.20
2018-07-12T08:58:17.742Z,92.70
2018-07-12T09:00:45.892Z,91.70
2018-07-12T09:03:15.003Z,91.10
2018-07-12T09:05:43.003Z,92.80
2018-07-12T09:08:11.044Z,92.30
2018-07-12T09:10:38.966Z,92.00
2018-07-12T09:13:09.868Z,91.90
2018-07-12T09:15:37.875Z,92.80
2018-07-12T09:18:07.584Z,92.40
2018-07-12T09:20:38.408Z,93.10
2018-07-12T09:23:07.005Z,93.00
2018-07-12T09:26:15.793Z,93.40
2018-07-12T09:28:43.757Z,92.50
2018-07-12T09:31:11.785Z,92.50
2018-07-12T09:33:40.536Z,91.90
2018-07-12T09:36:08.533Z,91.90
2018-07-12T09:38:47.117Z,91.20
2018-07-12T09:41:15.236Z,88.30
2018-07-12T09:43:44.026Z,90.40
2018-07-12T09:46:11.897Z,91.00
2018-07-12T09:48:41.787Z,91.30
2018-07-12T09:51:11.411Z,91.20
2018-07-12T09:53:40.297Z,91.00
2018-07-12T09:56:08.356Z,90.00
2018-07-12T10:05:18.180Z,89.90
2018-07-12T10:07:49.976Z,89.50
2018-07-12T10:10:19.216Z,89.10
2018-07-12T10:12:53.109Z,88.20
2018-07-12T10:15:26.566Z,90.20
2018-07-12T10:18:28.199Z,90.50
2018-07-12T10:20:56.409Z,90.50
2018-07-12T10:23:24.824Z,90.80
2018-07-12T10:25:53.247Z,91.10
2018-07-12T10:28:21.159Z,91.50
2018-07-12T10:30:49.192Z,92.10
2018-07-12T10:33:17.745Z,91.70
2018-07-12T10:35:45.577Z,91.50
2018-07-12T10:38:13.492Z,91.70
2018-07-12T10:40:41.614Z,91.50
2018-07-12T10:43:09.428Z,91.20
2018-07-12T10:45:38.430Z,90.60
2018-07-12T10:48:06.755Z,90.10
2018-07-12T10:50:35.230Z,90.20
2018-07-12T10:53:03.130Z,90.30
2018-07-12T10:55:31.118Z,90.20
2018-07-12T10:57:59.220Z,88.20
2018-07-12T11:00:27.160Z,87.90
2018-07-12T11:02:55.015Z,86.40
2018-07-12T11:05:23.146Z,87.00
2018-07-12T11:07:50.970Z,88.30
2018-07-12T11:10:19.340Z,87.20
2018-07-12T11:16:12.949Z,87.70
2018-07-12T11:18:51.099Z,85.30
2018-07-12T11:21:19.316Z,86.10
2018-07-12T11:24:15.908Z,84.70
2018-07-12T11:26:44.095Z,86.60
2018-07-12T11:29:12.223Z,85.50
2018-07-12T11:31:40.236Z,86.20
2018-07-12T11:34:08.442Z,86.30
2018-07-12T11:36:36.412Z,86.30
2018-07-12T11:39:06.626Z,86.70
2018-07-12T11:41:36.692Z,86.00
2018-07-12T11:44:04.698Z,84.00
2018-07-12T11:46:32.656Z,84.50
2018-07-12T11:49:00.522Z,85.00
2018-07-12T11:51:29.567Z,84.40
2018-07-12T11:53:57.796Z,84.60
2018-07-12T11:56:26.290Z,84.70
2018-07-12T11:58:54.832Z,85.90
2018-07-12T12:01:22.976Z,85.30
2018-07-12T12:03:51.057Z,83.00
2018-07-12T12:06:18.992Z,81.90
2018-07-12T12:08:46.984Z,83.70
2018-07-12T12:11:16.139Z,83.50
2018-07-12T12:13:44.209Z,82.00
2018-07-12T12:16:12.061Z,81.10
2018-07-12T12:18:40.744Z,79.80
2018-07-12T12:21:08.782Z,82.20
2018-07-12T12:23:37.639Z,81.60
2018-07-12T12:27:09.058Z,82.90
2018-07-12T12:30:10.849Z,80.40
2018-07-12T12:33:00.006Z,81.30
2018-07-12T12:35:28.139Z,78.20
2018-07-12T12:37:56.371Z,78.30
2018-07-12T12:40:26.689Z,78.60
2018-07-12T12:42:54.668Z,78.50
2018-07-12T12:45:24.381Z,79.00
2018-07-12T12:47:52.723Z,78.70
2018-07-12T12:50:21.782Z,77.30
2018-07-12T12:52:49.808Z,78.50
2018-07-12T12:55:18.475Z,78.50
2018-07-12T12:57:47.483Z,77.70
2018-07-12T13:00:15.699Z,77.50
2018-07-12T13:02:44.456Z,76.50
2018-07-12T13:05:13.307Z,76.70
2018-07-12T13:07:41.308Z,76.90
2018-07-12T13:10:10.152Z,76.90
2018-07-12T13:12:38.518Z,75.90
2018-07-12T13:15:07.411Z,76.00
2018-07-12T13:17:35.345Z,76.50
2018-07-12T13:20:03.733Z,76.80
2018-07-12T13:22:31.666Z,76.50
2018-07-12T13:24:59.787Z,76.80
2018-07-12T13:27:27.737Z,75.90
2018-07-12T13:29:56.702Z,75.20
2018-07-12T13:32:24.911Z,75.30
2018-07-12T13:35:05.713Z,75.30
2018-07-12T13:37:47.492Z,75.00
2018-07-12T13:40:15.348Z,74.30
2018-07-12T13:42:43.172Z,74.00
2018-07-12T13:45:10.930Z,73.30
2018-07-12T13:47:39.757Z,72.80
2018-07-12T13:50:07.586Z,73.90
2018-07-12T13:52:37.342Z,72.10
2018-07-12T13:55:05.152Z,74.10
2018-07-12T13:57:33.977Z,73.60
2018-07-12T14:00:01.825Z,72.20
2018-07-12T14:02:30.647Z,73.70
2018-07-12T14:04:58.534Z,72.50
2018-07-12T14:07:26.326Z,72.60
2018-07-12T14:09:54.169Z,72.50
2018-07-12T14:12:22.079Z,73.00
2018-07-12T14:14:49.947Z,72.70
2018-07-12T14:17:17.801Z,75.00
2018-07-12T14:19:45.668Z,75.00
2018-07-12T14:22:13.509Z,76.20
2018-07-12T14:24:41.426Z,75.00
2018-07-12T14:27:09.333Z,75.00
2018-07-12T14:29:38.182Z,75.00
2018-07-12T14:32:05.998Z,76.40
2018-07-12T14:34:34.909Z,76.40
2018-07-12T14:37:02.756Z,75.60
2018-07-12T14:39:30.650Z,74.00
2018-07-12T14:41:58.537Z,73.90
2018-07-12T14:44:26.417Z,74.00
2018-07-12T14:46:54.261Z,75.50
2018-07-12T14:49:22.138Z,75.00
2018-07-12T14:51:49.972Z,75.50
2018-07-12T14:54:17.768Z,75.40
2018-07-12T14:56:45.534Z,74.70
2018-07-12T14:59:13.307Z,76.10
2018-07-12T15:01:42.083Z,75.00
2018-07-12T15:04:09.922Z,74.10
2018-07-12T15:06:38.768Z,74.50
2018-07-12T15:09:07.284Z,75.40
2018-07-12T15:11:34.992Z,76.40
2018-07-12T15:14:02.849Z,76.00
2018-07-12T15:16:30.682Z,75.50
2018-07-12T15:18:58.508Z,76.70
2018-07-12T15:21:26.314Z,76.70
2018-07-12T15:23:54.102Z,76.30
2018-07-12T15:26:21.935Z,76.20
2018-07-12T15:28:50.166Z,75.80
2018-07-12T15:31:17.924Z,74.10
2018-07-12T15:33:45.711Z,74.90
2018-07-12T15:36:13.471Z,76.50
2018-07-12T15:38:41.259Z,77.80
2018-07-12T15:41:09.072Z,76.30
2018-07-12T15:43:36.951Z,77.30
2018-07-12T15:46:04.837Z,76.50
2018-07-12T15:48:32.679Z,77.20
2018-07-12T15:51:00.540Z,78.10
2018-07-12T15:53:28.424Z,78.90
2018-07-12T15:55:56.288Z,78.30
2018-07-12T15:58:24.188Z,77.80
2018-07-12T16:00:51.986Z,78.20
2018-07-12T16:03:22.318Z,79.80
2018-07-12T16:05:50.668Z,78.60
2018-07-12T16:08:18.559Z,78.90
2018-07-12T16:10:46.374Z,79.80
2018-07-12T16:13:14.145Z,79.30
2018-07-12T16:15:43.004Z,80.40
2018-07-12T16:18:10.831Z,78.90
2018-07-12T16:20:39.633Z,80.00
2018-07-12T16:23:07.421Z,80.40
2018-07-12T16:30:36.682Z,79.90
2018-07-12T16:33:04.822Z,80.10
2018-07-12T16:35:32.686Z,80.90
2018-07-12T16:38:00.550Z,82.90
2018-07-12T16:40:28.344Z,84.60
2018-07-12T16:42:56.228Z,83.80
2018-07-12T16:45:24.072Z,83.10
2018-07-12T16:47:51.927Z,84.60
2018-07-12T16:50:19.814Z,83.60
2018-07-12T16:52:47.608Z,83.00
2018-07-12T16:55:15.406Z,82.40
2018-07-12T16:57:43.210Z,83.50
2018-07-12T17:00:11.139Z,85.20
2018-07-12T17:02:39.154Z,86.30
2018-07-12T17:05:08.496Z,85.90
2018-07-12T17:07:36.448Z,85.40
2018-07-12T17:10:05.505Z,84.50
2018-07-12T17:12:33.351Z,84.90
2018-07-12T17:15:01.152Z,84.40
2018-07-12T17:17:28.986Z,85.50
2018-07-12T17:19:56.809Z,86.10
2018-07-12T17:22:24.593Z,86.20
2018-07-12T17:24:52.388Z,87.60
2018-07-12T17:27:20.963Z,89.50
2018-07-12T17:29:48.814Z,91.20
2018-07-12T17:32:16.659Z,92.50
2018-07-12T17:34:44.486Z,93.30
2018-07-12T17:37:12.282Z,94.20
2018-07-12T17:39:40.320Z,94.10
2018-07-12T17:42:08.187Z,94.50
2018-07-12T17:44:36.013Z,94.90
2018-07-12T17:47:03.967Z,95.00
2018-07-12T17:49:31.788Z,95.40
2018-07-12T17:51:59.604Z,95.80
2018-07-12T17:54:27.448Z,95.90
2018-07-12T17:56:55.352Z,96.20
2018-07-12T17:59:23.191Z,96.30
2018-07-12T18:01:51.294Z,96.60
2018-07-12T18:04:19.492Z,96.90
2018-07-12T18:06:47.523Z,97.10
2018-07-12T18:09:15.708Z,97.50
2018-07-12T18:11:43.600Z,96.90
2018-07-12T18:14:11.700Z,97.20
2018-07-12T18:16:39.582Z,97.70
2018-07-12T18:19:07.641Z,98.10
2018-07-12T18:21:35.678Z,98.20
2018-07-12T18:24:04.644Z,98.40
2018-07-12T18:26:32.534Z,98.50
2018-07-12T18:29:00.416Z,98.50
2018-07-12T18:31:28.323Z,98.50
2018-07-12T18:33:56.190Z,98.50
2018-07-12T18:36:24.066Z,98.60
2018-07-12T18:38:51.980Z,98.80
2018-07-12T18:41:20.062Z,99.30
2018-07-12T18:43:47.954Z,99.50
2018-07-12T18:46:15.820Z,99.50
2018-07-12T18:48:43.693Z,99.70
2018-07-12T18:51:12.667Z,99.70
2018-07-12T18:53:40.772Z,99.90
2018-07-12T18:56:08.721Z,99.90
2018-07-12T18:58:36.701Z,99.90
2018-07-12T19:01:04.532Z,99.90
2018-07-12T19:03:32.372Z,99.90
2018-07-12T19:06:00.197Z,99.90
2018-07-12T19:08:28.081Z,99.90
2018-07-12T19:10:56.008Z,99.90
2018-07-12T19:13:23.984Z,99.90
2018-07-12T19:15:51.933Z,99.90
2018-07-12T19:18:19.832Z,99.90
2018-07-12T19:20:47.751Z,99.90
2018-07-12T19:23:16.701Z,99.90
2018-07-12T19:25:45.756Z,99.90
2018-07-12T19:28:13.685Z,99.90
2018-07-12T19:30:42.681Z,99.90
2018-07-12T19:33:55.437Z,99.90
2018-07-12T19:37:03.127Z,99.90
2018-07-12T19:39:31.004Z,99.90
2018-07-12T19:41:58.828Z,99.90
2018-07-12T19:44:26.658Z,99.90
2018-07-12T19:47:25.286Z,99.90
2018-07-12T19:52:58.126Z,99.90
2018-07-12T19:55:26.086Z,99.90
2018-07-12T19:57:53.952Z,99.90
2018-07-12T20:00:21.833Z,99.90
2018-07-12T20:02:49.668Z,99.90
2018-07-12T20:05:17.498Z,99.90
2018-07-12T20:07:45.336Z,99.90
2018-07-12T20:10:13.132Z,99.90
2018-07-12T20:12:42.008Z,99.90
2018-07-12T20:15:09.882Z,99.90
2018-07-12T20:17:37.778Z,99.90
2018-07-12T20:20:06.503Z,99.90
2018-07-12T20:22:34.921Z,99.90
2018-07-12T20:25:02.911Z,99.90
2018-07-12T20:28:05.120Z,99.90
2018-07-12T20:30:33.009Z,99.90
2018-07-12T20:33:00.856Z,99.90
2018-07-12T20:35:29.202Z,99.90
2018-07-12T20:37:57.122Z,99.90
2018-07-12T20:40:24.986Z,99.90
2018-07-12T20:42:52.841Z,99.90
2018-07-12T20:45:20.811Z,99.90
2018-07-12T20:47:48.640Z,99.90
2018-07-12T20:50:17.517Z,99.90
2018-07-12T20:52:45.394Z,99.90
2018-07-12T20:55:14.347Z,99.90
2018-07-12T20:57:42.258Z,99.90
2018-07-12T21:00:10.092Z,99.90
2018-07-12T21:02:38.039Z,99.90
2018-07-12T21:05:06.950Z,99.90
2018-07-12T21:07:34.873Z,99.90
2018-07-12T21:10:02.710Z,99.90
2018-07-12T21:12:30.674Z,99.90
2018-07-12T21:14:58.574Z,99.90
2018-07-12T21:17:26.513Z,99.90
2018-07-12T21:19:54.437Z,99.90
2018-07-12T21:22:22.888Z,99.90
2018-07-12T21:24:50.722Z,99.90
2018-07-12T21:27:18.577Z,99.90
2018-07-12T21:29:46.450Z,99.90
2018-07-12T21:32:22.105Z,99.90
2018-07-12T21:34:57.444Z,99.90
2018-07-12T21:37:27.435Z,99.90
2018-07-12T21:39:55.631Z,99.90
2018-07-12T21:42:24.473Z,99.90
2018-07-12T21:44:52.400Z,99.90
2018-07-12T21:47:20.382Z,99.90
2018-07-12T21:49:48.418Z,99.90
2018-07-12T21:52:16.417Z,99.90
2018-07-12T21:54:45.343Z,99.90
2018-07-12T21:57:13.299Z,99.90
2018-07-12T21:59:41.229Z,99.90
2018-07-12T22:02:09.187Z,99.90
2018-07-12T22:04:37.298Z,99.90
2018-07-12T22:08:19.714Z,99.90
2018-07-12T22:10:48.840Z,99.90
2018-07-12T22:13:17.232Z,99.90
2018-07-12T22:15:46.160Z,99.90
2018-07-12T22:18:14.765Z,99.90
2018-07-12T22:20:42.828Z,99.90
2018-07-12T22:23:11.192Z,99.90
2018-07-12T22:25:39.317Z,99.90
2018-07-12T22:28:07.586Z,99.90
2018-07-12T22:30:35.735Z,99.90
2018-07-12T22:33:04.481Z,99.90
2018-07-12T22:35:32.720Z,99.90
2018-07-12T22:38:01.757Z,99.90
2018-07-12T22:40:30.054Z,99.90
2018-07-12T22:42:57.986Z,99.90
2018-07-12T22:45:25.951Z,99.90
2018-07-12T22:47:54.065Z,99.90
2018-07-12T22:50:21.984Z,99.90
2018-07-12T22:52:49.960Z,99.90
2018-07-12T22:55:18.107Z,99.90
2018-07-12T22:57:46.321Z,99.90
2018-07-12T23:00:14.305Z,99.90
2018-07-12T23:02:42.290Z,99.90
2018-07-12T23:05:10.214Z,99.90
2018-07-12T23:07:38.165Z,99.90
2018-07-12T23:10:07.109Z,99.90
2018-07-12T23:12:35.071Z,99.90
2018-07-12T23:15:02.969Z,99.90
2018-07-12T23:17:30.874Z,99.90
2018-07-12T23:19:58.786Z,99.90
2018-07-12T23:22:26.594Z,99.90
2018-07-12T23:32:52.824Z,99.90
2018-07-12T23:35:20.875Z,99.90
2018-07-12T23:37:48.832Z,99.90
2018-07-12T23:40:16.722Z,99.90
2018-07-12T23:42:44.700Z,99.90
2018-07-12T23:45:13.783Z,99.90
2018-07-12T23:47:42.149Z,99.90
2018-07-12T23:50:11.112Z,99.90
2018-07-12T23:52:39.082Z,99.90
2018-07-12T23:55:07.043Z,99.90
2018-07-12T23:57:35.075Z,99.90
